Time;durP1;ratioP1;P1;durP2;ratioP2;P2;SDS_P1;SDS_P2;PMS_P1;PMS_P2;Temp;Humidity;BMP_temperature;BMP_pressure;BME280_temperature;BME280_humidity;BME280_pressure;Samples;Min_cycle;Max_cycle;Signal;HPM_P1;HPM_P2
2022/08/26 00:02:11;;;;;;;17.20;12.57;;;;;;;19.73;100.00;101221.66;9973877;29;20057;-85
2022/08/26 00:07:11;;;;;;;16.10;11.90;;;;;;;19.91;100.00;101273.03;9975953;29;20090;-85
2022/08/26 00:12:12;;;;;;;15.18;11.15;;;;;;;19.06;100.00;101154.94;10005460;29;20041;-85
2022/08/26 00:17:13;;;;;;;23.23;13.20;;;;;;;19.40;100.00;101238.41;9989622;29;20030;-85
2022/08/26 00:22:13;;;;;;;16.92;12.57;;;;;;;19.64;100.00;101284.94;9997248;29;20048;-85
2022/08/26 00:27:14;;;;;;;15.02;12.30;;;;;;;19.82;100.00;101303.63;10011368;29;20430;-86
2022/08/26 00:32:14;;;;;;;18.77;11.85;;;;;;;19.73;100.00;101277.53;10027620;29;20029;-86
2022/08/26 00:37:15;;;;;;;18.45;12.80;;;;;;;18.92;100.00;101188.41;10026287;29;20056;-85
2022/08/26 00:42:15;;;;;;;22.13;16.02;;;;;;;19.63;100.00;101294.44;10011520;29;20030;-85
2022/08/26 00:47:37;;;;;;;24.17;17.63;;;;;;;19.22;100.00;101233.69;9992973;29;20591;-85
2022/08/26 00:52:38;;;;;;;23.42;17.33;;;;;;;18.78;100.00;101156.78;9989144;29;20034;-84
2022/08/26 00:57:38;;;;;;;26.58;21.70;;;;;;;19.30;100.00;101278.47;9999776;29;20390;-85
2022/08/26 01:02:39;;;;;;;37.22;28.50;;;;;;;18.54;100.00;101141.81;9998372;29;20077;-85
2022/08/26 01:07:39;;;;;;;36.13;29.17;;;;;;;19.02;100.00;101220.91;10009250;29;20479;-85
2022/08/26 01:12:43;;;;;;;38.03;30.45;;;;;;;19.36;100.00;101284.81;10003801;29;20068;-84
2022/08/26 01:17:44;;;;;;;38.95;32.67;;;;;;;19.65;100.00;101350.81;9980643;29;20058;-85
2022/08/26 01:22:54;;;;;;;47.85;33.38;;;;;;;19.48;100.00;101299.13;9980192;29;20121;-85
2022/08/26 01:27:56;;;;;;;42.05;35.65;;;;;;;19.68;100.00;101330.69;9982803;29;20042;-85
2022/08/26 01:32:58;;;;;;;43.95;36.38;;;;;;;18.94;100.00;101222.41;9998487;29;20026;-84
2022/08/26 01:38:01;;;;;;;42.72;34.00;;;;;;;18.78;100.00;101191.09;10009581;29;20503;-85
2022/08/26 01:43:02;;;;;;;48.55;37.38;;;;;;;18.66;100.00;101204.66;10010803;29;20523;-85
2022/08/26 01:48:04;;;;;;;54.33;37.05;;;;;;;19.72;100.00;101359.66;10023954;29;20490;-85
2022/08/26 01:53:09;;;;;;;55.75;38.25;;;;;;;18.71;100.00;101202.63;9994046;29;20030;-86
2022/08/26 01:58:14;;;;;;;53.72;36.83;;;;;;;19.47;100.00;101347.75;10011409;29;20117;-86
2022/08/26 02:03:17;;;;;;;61.10;38.55;;;;;;;18.47;100.00;101162.81;10016769;29;20594;-86
2022/08/26 02:08:20;;;;;;;58.90;38.50;;;;;;;18.58;100.00;101208.13;10009154;29;20042;-86
2022/08/26 02:13:20;;;;;;;54.53;37.80;;;;;;;19.20;100.00;101281.44;10001290;29;20041;-86
2022/08/26 02:18:21;;;;;;;57.97;38.65;;;;;;;19.63;100.00;101330.75;9970571;29;20110;-86
2022/08/26 02:23:24;;;;;;;55.55;37.03;;;;;;;19.32;100.00;101283.75;10032734;29;20032;-87
2022/08/26 02:28:26;;;;;;;59.72;37.92;;;;;;;19.07;100.00;101277.44;10008401;29;20422;-85
2022/08/26 02:33:28;;;;;;;61.95;36.75;;;;;;;19.13;100.00;101253.09;10017610;29;20386;-85
2022/08/26 02:38:28;;;;;;;51.28;34.95;;;;;;;18.87;100.00;101227.53;10031464;29;20033;-86
2022/08/26 02:43:29;;;;;;;57.40;33.38;;;;;;;19.68;100.00;101328.69;9999007;29;20430;-86
2022/08/26 02:48:30;;;;;;;55.67;33.40;;;;;;;19.26;100.00;101280.22;9976910;29;20067;-85
2022/08/26 02:53:30;;;;;;;61.45;34.13;;;;;;;19.85;100.00;101358.91;9993780;29;20167;-86
2022/08/26 02:58:32;;;;;;;56.72;33.60;;;;;;;19.03;100.00;101254.06;9977818;29;20042;-87
2022/08/26 03:03:32;;;;;;;63.45;35.35;;;;;;;19.14;100.00;101238.84;9995267;29;20074;-86
2022/08/26 03:08:33;;;;;;;61.45;34.40;;;;;;;19.27;100.00;101283.84;9971504;29;20423;-86
2022/08/26 03:13:35;;;;;;;59.00;36.90;;;;;;;18.99;100.00;101236.25;9973150;29;20082;-85
2022/08/26 03:18:35;;;;;;;58.28;33.35;;;;;;;20.14;100.00;101380.19;9970072;29;20037;-86
2022/08/26 03:23:37;;;;;;;52.30;32.10;;;;;;;19.50;100.00;101310.84;10030120;29;20113;-86
2022/08/26 03:30:38;;;;;;;56.90;33.53;;;;;;;19.29;100.00;101251.72;10015749;29;20050;-87
2022/08/26 03:33:58;;;;;;;54.40;31.40;;;;;;;19.48;100.00;101296.34;10031978;29;20037;-86
2022/08/26 03:38:59;;;;;;;54.88;33.17;;;;;;;19.22;100.00;101216.94;10012300;29;20029;-86
2022/08/26 03:44:01;;;;;;;58.97;33.40;;;;;;;19.68;100.00;101327.88;10043663;29;20124;-86
2022/08/26 03:49:02;;;;;;;57.78;36.13;;;;;;;19.08;100.00;101237.25;10028611;29;20161;-87
2022/08/26 03:54:03;;;;;;;51.95;33.67;;;;;;;19.75;100.00;101328.34;10019051;29;20131;-87
2022/08/26 03:59:04;;;;;;;65.45;36.80;;;;;;;18.98;100.00;101212.31;9976306;29;20045;-86
2022/08/26 04:04:04;;;;;;;61.47;36.75;;;;;;;19.39;100.00;101291.75;10033260;29;20097;-86
2022/08/26 04:09:07;;;;;;;60.72;35.47;;;;;;;19.11;100.00;101216.28;10013678;29;20041;-86
2022/08/26 04:14:12;;;;;;;55.78;36.75;;;;;;;19.11;100.00;101228.25;10028714;29;20097;-86
2022/08/26 04:19:13;;;;;;;60.25;38.13;;;;;;;19.52;100.00;101294.59;10034767;29;20056;-85
2022/08/26 04:43:07;;;;;;;57.13;31.50;;;;;;;20.43;100.00;101373.53;10498360;27;20391;-77
2022/08/26 04:48:08;;;;;;;51.72;30.27;;;;;;;20.43;100.00;101376.31;10498029;28;20040;-76
2022/08/26 04:53:08;;;;;;;48.80;27.52;;;;;;;20.30;100.00;101359.22;10459192;28;20046;-78
2022/08/26 04:58:09;;;;;;;46.05;27.10;;;;;;;20.34;100.00;101368.66;10469845;28;20030;-77
2022/08/26 05:03:10;;;;;;;47.42;26.73;;;;;;;20.43;100.00;101373.53;10454071;28;20045;-74
2022/08/26 05:08:12;;;;;;;53.67;25.65;;;;;;;20.48;100.00;101373.41;10396479;28;20041;-76
2022/08/26 05:13:13;;;;;;;40.70;23.70;;;;;;;20.41;100.00;101359.84;10412935;28;20444;-77
2022/08/26 05:18:15;;;;;;;35.92;24.25;;;;;;;20.64;100.00;101383.19;10395758;28;20036;-78
2022/08/26 05:23:16;;;;;;;50.95;23.90;;;;;;;20.72;100.00;101371.28;10395727;28;20548;-83
2022/08/26 05:28:17;;;;;;;43.95;23.77;;;;;;;20.71;100.00;101391.16;10402407;28;20046;-80
2022/08/26 05:33:17;;;;;;;42.80;23.83;;;;;;;20.69;100.00;101359.88;10426571;28;20034;-78
2022/08/26 05:38:19;;;;;;;41.20;24.00;;;;;;;20.48;100.00;101328.66;10394476;28;20405;-79
2022/08/26 05:43:20;;;;;;;39.50;24.52;;;;;;;20.73;100.00;101367.38;10412057;28;20042;-79
2022/08/26 05:48:20;;;;;;;45.22;23.85;;;;;;;20.82;100.00;101369.44;10434922;28;20040;-78
2022/08/26 05:53:21;;;;;;;34.00;22.58;;;;;;;20.96;100.00;101387.88;10445495;28;20057;-81
2022/08/26 05:58:22;;;;;;;37.28;23.40;;;;;;;20.83;100.00;101368.28;10387256;28;20100;-78
2022/08/26 06:03:23;;;;;;;42.53;22.58;;;;;;;21.01;100.00;101395.31;10416092;28;20038;-78
2022/08/26 06:08:23;;;;;;;41.17;24.00;;;;;;;21.09;100.00;101402.97;10383782;28;20068;-75
2022/08/26 06:13:25;;;;;;;42.22;22.67;;;;;;;21.15;100.00;101401.72;10416345;28;20050;-79
2022/08/26 06:18:35;;;;;;;43.08;22.80;;;;;;;21.14;100.00;101399.25;10403780;28;20482;-77
2022/08/26 06:28:54;;;;;;;32.72;20.55;;;;;;;21.23;100.00;101414.19;10425170;28;20364;-78
2022/08/26 06:33:55;;;;;;;51.33;24.10;;;;;;;21.15;100.00;101401.72;10424563;28;20038;-79
2022/08/26 06:38:59;;;;;;;36.15;21.33;;;;;;;21.17;100.00;101402.25;10412098;28;20041;-77
2022/08/26 06:44:00;;;;;;;44.35;21.45;;;;;;;21.38;100.00;101412.19;10461458;28;20037;-92
2022/08/26 06:49:00;;;;;;;32.80;20.35;;;;;;;21.59;100.00;101420.97;10447441;28;20037;-87
2022/08/26 06:54:01;;;;;;;37.42;19.98;;;;;;;21.69;100.00;101429.13;10463552;28;20403;-84
2022/08/26 06:59:02;;;;;;;35.80;21.63;;;;;;;21.46;100.00;101377.84;10445544;28;20036;-82
2022/08/26 07:04:04;;;;;;;38.70;21.05;;;;;;;21.78;100.00;101430.03;10415384;28;20041;-85
2022/08/26 07:09:06;;;;;;;33.53;18.88;;;;;;;21.93;100.00;101426.00;10430205;28;20063;-85
2022/08/26 07:14:06;;;;;;;28.70;17.60;;;;;;;22.03;100.00;101425.75;10442744;28;20045;-83
2022/08/26 07:19:07;;;;;;;26.23;17.13;;;;;;;22.44;100.00;101423.91;10444368;28;20056;-81
2022/08/26 07:24:08;;;;;;;24.98;17.38;;;;;;;22.60;100.00;101427.97;10405276;28;20049;-86
2022/08/26 07:29:10;;;;;;;29.67;14.88;;;;;;;22.98;100.00;101447.09;10431861;28;20090;-86
2022/08/26 07:34:12;;;;;;;27.27;15.98;;;;;;;22.95;100.00;101440.16;10441147;28;20076;-82
2022/08/26 07:39:13;;;;;;;27.52;15.95;;;;;;;22.77;100.00;101455.28;10444481;28;20041;-86
2022/08/26 07:44:13;;;;;;;24.60;14.63;;;;;;;22.57;100.00;101462.28;10426280;28;20477;-89
2022/08/26 07:49:16;;;;;;;22.40;14.82;;;;;;;22.45;100.00;101473.25;10444603;28;20048;-84
2022/08/26 07:54:17;;;;;;;32.85;17.67;;;;;;;22.40;100.00;101462.19;10440322;28;20059;-89
2022/08/26 07:59:17;;;;;;;29.80;15.80;;;;;;;22.39;100.00;101460.50;10401679;28;20042;-83
2022/08/26 08:04:18;;;;;;;23.42;14.68;;;;;;;22.48;100.00;101476.25;10426088;28;20048;-85
2022/08/26 08:09:18;;;;;;;21.08;13.40;;;;;;;22.89;100.00;101477.16;10445944;28;20033;-91
2022/08/26 08:14:19;;;;;;;28.20;15.15;;;;;;;22.95;100.00;101478.66;10450384;28;20045;-85
2022/08/26 08:19:19;;;;;;;24.00;15.38;;;;;;;22.68;100.00;101469.28;10423560;28;20052;-80
2022/08/26 08:24:20;;;;;;;30.25;15.68;;;;;;;22.90;100.00;101478.78;10444007;28;20132;-88
2022/08/26 08:29:21;;;;;;;25.10;13.55;;;;;;;22.75;100.00;101492.09;10444238;28;20045;-92
2022/08/26 08:34:22;;;;;;;31.55;13.18;;;;;;;22.18;100.00;101444.19;10444932;28;20052;-85
2022/08/26 08:39:22;;;;;;;25.83;13.32;;;;;;;22.40;100.00;101481.81;10461651;28;20041;-91
2022/08/26 08:44:23;;;;;;;30.38;12.88;;;;;;;22.47;100.00;101490.59;10438915;28;20026;-89
2022/08/26 08:49:24;;;;;;;26.48;13.75;;;;;;;22.40;100.00;101476.22;10406103;28;20052;-86
2022/08/26 08:54:25;;;;;;;23.05;13.50;;;;;;;22.49;100.00;101483.53;10414465;28;20185;-88
2022/08/26 08:59:30;;;;;;;18.98;11.32;;;;;;;22.74;100.00;101478.41;10432218;28;20117;-82
2022/08/26 09:04:50;;;;;;;28.63;12.05;;;;;;;22.99;100.00;101485.28;10392402;28;20037;-82
2022/08/26 09:09:54;;;;;;;22.30;12.10;;;;;;;22.86;100.00;101487.06;10412068;28;20515;-78
2022/08/26 09:15:01;;;;;;;24.38;10.52;;;;;;;22.65;100.00;101483.94;10372623;28;20038;-80
2022/08/26 09:20:28;;;;;;;14.00;9.73;;;;;;;22.64;100.00;101512.34;10409764;28;20056;-77
2022/08/26 09:25:29;;;;;;;19.88;11.55;;;;;;;22.86;100.00;101508.66;10358003;28;20050;-78
2022/08/26 09:30:31;;;;;;;23.08;11.93;;;;;;;23.08;100.00;101511.44;10380173;28;20038;-78
2022/08/26 09:35:37;;;;;;;24.90;11.57;;;;;;;23.12;100.00;101509.63;10412788;28;20117;-76
2022/08/26 09:40:37;;;;;;;22.25;10.82;;;;;;;22.90;100.00;101504.06;10362794;28;20042;-76
2022/08/26 09:45:38;;;;;;;15.60;9.15;;;;;;;22.67;100.00;101463.97;10378908;28;20113;-75
2022/08/26 09:50:52;;;;;;;19.88;9.02;;;;;;;22.95;100.00;101513.16;10366083;28;20041;-75
2022/08/26 09:56:22;;;;;;;15.13;7.00;;;;;;;23.00;100.00;101503.78;10459006;28;20044;-83
2022/08/26 10:01:25;;;;;;;8.25;5.20;;;;;;;23.20;100.00;101496.78;10439522;28;20111;-85
2022/08/26 10:06:27;;;;;;;8.27;5.10;;;;;;;23.49;100.00;101504.63;10460069;28;20091;-83
2022/08/26 10:11:49;;;;;;;12.82;5.55;;;;;;;24.14;100.00;101496.44;10458819;28;20519;-79
2022/08/26 10:17:09;;;;;;;8.95;4.93;;;;;;;24.72;100.00;101506.34;10411375;28;20029;-84
2022/08/26 10:22:19;;;;;;;16.15;6.05;;;;;;;24.09;100.00;101502.25;10420619;28;20440;-83
2022/08/26 10:27:42;;;;;;;12.00;4.60;;;;;;;23.57;100.00;101512.25;10403527;28;20064;-84
2022/08/26 10:32:51;;;;;;;12.40;4.95;;;;;;;23.05;100.00;101505.63;10426014;28;20083;-81
2022/08/26 10:37:56;;;;;;;14.18;4.13;;;;;;;23.01;100.00;101521.44;10424530;28;20047;-77
2022/08/26 10:43:08;;;;;;;14.43;4.57;;;;;;;22.48;100.00;101523.13;10459481;28;20508;-79
2022/08/26 10:48:16;;;;;;;16.05;5.65;;;;;;;22.31;100.00;101521.84;10441295;28;20045;-76
2022/08/26 10:53:39;;;;;;;10.52;3.33;;;;;;;22.19;100.00;101521.56;10458317;28;20037;-77
2022/08/26 10:58:55;;;;;;;21.63;4.03;;;;;;;22.32;100.00;101540.34;10457721;28;20114;-76
2022/08/26 11:03:57;;;;;;;10.23;3.88;;;;;;;22.49;100.00;101530.38;10466318;28;20463;-76
2022/08/26 11:09:00;;;;;;;12.10;3.60;;;;;;;22.22;100.00;101525.69;10428779;28;20037;-76
2022/08/26 11:14:04;;;;;;;10.32;3.28;;;;;;;22.56;100.00;101528.81;10456006;28;20059;-77
2022/08/26 11:19:05;;;;;;;8.40;2.90;;;;;;;22.87;100.00;101541.22;10439193;28;20113;-76
2022/08/26 11:24:06;;;;;;;8.57;3.50;;;;;;;22.71;100.00;101535.97;10489011;28;20650;-77
2022/08/26 11:29:08;;;;;;;14.13;3.65;;;;;;;22.68;100.00;101531.03;10471878;28;20048;-76
2022/08/26 11:34:12;;;;;;;9.98;4.30;;;;;;;22.54;100.00;101519.88;10439496;28;20044;-76
2022/08/26 11:39:23;;;;;;;10.80;3.53;;;;;;;22.55;100.00;101509.47;10467018;28;20038;-78
2022/08/26 11:44:45;;;;;;;7.80;3.25;;;;;;;22.67;100.00;101522.91;10414011;28;20413;-76
2022/08/26 11:49:45;;;;;;;12.95;4.13;;;;;;;22.51;100.00;101519.66;10373287;28;20061;-77
2022/08/26 11:55:06;;;;;;;9.85;3.42;;;;;;;22.55;100.00;101501.06;10390432;28;20056;-78
2022/08/26 12:00:13;;;;;;;18.42;5.47;;;;;;;22.57;100.00;101515.59;10376735;28;20049;-77
2022/08/26 12:05:24;;;;;;;11.98;4.82;;;;;;;22.40;100.00;101507.06;10414799;28;20049;-78
2022/08/26 12:10:28;;;;;;;12.60;4.72;;;;;;;22.75;100.00;101516.53;10380880;28;20057;-77
2022/08/26 12:15:29;;;;;;;15.55;6.28;;;;;;;23.15;100.00;101516.56;10435045;28;20112;-78
2022/08/26 12:20:44;;;;;;;12.65;5.20;;;;;;;23.33;100.00;101518.31;10438213;28;20037;-78
2022/08/26 12:25:45;;;;;;;14.63;5.30;;;;;;;23.40;100.00;101529.09;10400360;28;20034;-78
2022/08/26 12:31:04;;;;;;;14.85;4.70;;;;;;;23.04;100.00;101518.84;10422647;28;20443;-77
2022/08/26 12:36:04;;;;;;;11.18;4.57;;;;;;;22.75;100.00;101531.38;10429326;28;20459;-80
2022/08/26 12:41:05;;;;;;;14.23;4.18;;;;;;;22.33;100.00;101539.19;10436362;28;20397;-80
2022/08/26 12:46:07;;;;;;;15.02;5.18;;;;;;;22.24;100.00;101526.25;10395486;28;20042;-79
2022/08/26 12:51:19;;;;;;;14.50;4.72;;;;;;;22.49;100.00;101538.81;10396741;28;20033;-78
2022/08/26 12:56:34;;;;;;;12.95;4.75;;;;;;;22.72;100.00;101531.22;10406659;28;20037;-76
2022/08/26 13:01:37;;;;;;;12.10;3.72;;;;;;;22.91;100.00;101537.44;10421433;28;20045;-77
2022/08/26 13:06:39;;;;;;;19.90;3.25;;;;;;;23.19;100.00;101533.63;10460171;28;20041;-78
2022/08/26 13:11:39;;;;;;;14.95;3.17;;;;;;;23.18;100.00;101524.38;10409512;28;20055;-78
2022/08/26 13:16:43;;;;;;;11.82;3.15;;;;;;;23.03;100.00;101513.56;10425006;28;20087;-77
2022/08/26 13:21:46;;;;;;;11.48;3.85;;;;;;;22.49;100.00;101494.75;10458617;28;20043;-77
2022/08/26 13:26:47;;;;;;;15.57;3.28;;;;;;;22.54;100.00;101496.59;10444370;28;20040;-77
2022/08/26 13:31:48;;;;;;;10.35;2.78;;;;;;;22.67;100.00;101476.03;10426934;28;20045;-77
2022/08/26 13:36:50;;;;;;;10.15;3.58;;;;;;;22.47;100.00;101507.44;10443878;28;20041;-78
2022/08/26 13:41:50;;;;;;;10.63;2.40;;;;;;;21.92;100.00;101526.13;10463260;28;20052;-79
2022/08/26 13:46:51;;;;;;;6.60;2.08;;;;;;;21.52;100.00;101514.69;10419882;28;20563;-75
2022/08/26 13:51:51;;;;;;;3.65;2.10;;;;;;;21.89;100.00;101509.09;10420652;28;20459;-80
2022/08/26 13:56:52;;;;;;;3.92;1.15;;;;;;;22.40;100.00;101504.25;10421541;28;20037;-72
2022/08/26 14:01:52;;;;;;;5.85;1.38;;;;;;;23.02;100.00;101500.69;10420032;28;20508;-71
2022/08/26 14:06:53;;;;;;;6.25;1.95;;;;;;;23.25;100.00;101515.47;10417708;28;20045;-71
2022/08/26 14:11:53;;;;;;;7.80;1.98;;;;;;;22.79;100.00;101478.25;10446147;28;20052;-70
2022/08/26 14:16:54;;;;;;;5.70;1.42;;;;;;;23.30;100.00;101518.16;10461938;28;20032;-69
2022/08/26 14:21:55;;;;;;;7.70;1.65;;;;;;;23.36;100.00;101522.47;10443565;28;20037;-70
2022/08/26 14:26:55;;;;;;;10.75;2.90;;;;;;;22.58;100.00;101508.84;10459842;28;20033;-75
2022/08/26 14:31:56;;;;;;;9.77;2.30;;;;;;;22.09;100.00;101513.41;10458221;28;20412;-75
2022/08/26 14:36:57;;;;;;;5.82;1.52;;;;;;;21.80;100.00;101509.00;10428311;28;20037;-75
2022/08/26 14:41:57;;;;;;;7.15;1.58;;;;;;;22.05;100.00;101517.97;10399720;28;20046;-74
2022/08/26 14:46:59;;;;;;;8.23;1.90;;;;;;;22.64;100.00;101507.56;10418142;28;20040;-76
2022/08/26 14:52:00;;;;;;;11.57;2.60;;;;;;;22.48;100.00;101509.09;10385344;28;20038;-76
2022/08/26 14:57:02;;;;;;;4.03;1.63;;;;;;;22.14;100.00;101488.06;10417493;28;20033;-78
2022/08/26 15:02:04;;;;;;;7.43;3.15;;;;;;;21.76;100.00;101499.56;10399737;28;20054;-73
2022/08/26 15:07:04;;;;;;;11.10;2.40;;;;;;;21.52;100.00;101506.28;10416415;28;20037;-73
2022/08/26 15:12:05;;;;;;;8.43;2.17;;;;;;;21.46;100.00;101515.94;10430865;28;20041;-74
2022/08/26 15:17:05;;;;;;;9.27;2.78;;;;;;;21.35;100.00;101526.50;10417316;28;20105;-74
2022/08/26 15:22:06;;;;;;;8.43;2.58;;;;;;;21.20;100.00;101514.75;10416679;28;20037;-73
2022/08/26 15:27:07;;;;;;;10.35;2.50;;;;;;;21.02;100.00;101517.31;10431798;28;20029;-76
2022/08/26 15:32:08;;;;;;;11.10;2.55;;;;;;;20.95;100.00;101519.72;10474873;28;20036;-75
2022/08/26 15:37:08;;;;;;;9.23;2.45;;;;;;;20.56;100.00;101518.16;10463112;28;20044;-70
2022/08/26 15:42:10;;;;;;;7.65;2.55;;;;;;;20.50;100.00;101519.38;10436432;28;22192;-72
2022/08/26 15:47:11;;;;;;;7.97;3.17;;;;;;;20.46;100.00;101518.31;10435175;28;20060;-72
2022/08/26 15:52:12;;;;;;;10.23;2.33;;;;;;;20.64;100.00;101525.88;10434954;28;20049;-73
2022/08/26 15:57:12;;;;;;;9.90;2.33;;;;;;;20.73;100.00;101526.84;10441685;28;20025;-74
2022/08/26 16:02:12;;;;;;;6.68;2.50;;;;;;;20.66;100.00;101529.19;10442403;28;20041;-74
2022/08/26 16:07:13;;;;;;;11.07;2.45;;;;;;;20.24;100.00;101471.47;10441873;28;20034;-73
2022/08/26 16:12:13;;;;;;;6.45;2.53;;;;;;;20.40;100.00;101522.34;10415694;28;20129;-74
2022/08/26 16:17:14;;;;;;;6.25;2.20;;;;;;;20.20;100.00;101526.31;10376622;28;20042;-75
2022/08/26 16:22:15;;;;;;;7.90;2.05;;;;;;;20.08;100.00;101526.78;10373157;28;20042;-75
2022/08/26 16:27:15;;;;;;;9.65;2.20;;;;;;;19.98;100.00;101524.13;10372104;28;20037;-79
2022/08/26 16:32:15;;;;;;;6.82;1.15;;;;;;;19.91;100.00;101539.31;10393058;28;20056;-79
2022/08/26 16:37:16;;;;;;;7.55;1.40;;;;;;;19.75;100.00;101516.34;10383511;28;20101;-85
2022/08/26 16:42:16;;;;;;;11.90;1.50;;;;;;;19.91;100.00;101553.28;10425226;28;20095;-78
2022/08/26 16:47:17;;;;;;;7.38;1.00;;;;;;;19.88;100.00;101542.69;10443121;28;20103;-78
2022/08/26 16:52:17;;;;;;;4.53;1.23;;;;;;;19.77;100.00;101541.19;10426494;28;20037;-79
2022/08/26 16:57:18;;;;;;;11.68;2.42;;;;;;;19.77;100.00;101546.78;10428827;28;20033;-83
2022/08/26 17:02:18;;;;;;;5.43;1.75;;;;;;;19.76;100.00;101545.09;10406872;28;20201;-80
2022/08/26 17:07:19;;;;;;;6.43;1.38;;;;;;;19.77;100.00;101546.78;10437934;28;20029;-80
2022/08/26 17:12:19;;;;;;;13.23;1.90;;;;;;;19.56;100.00;101535.84;10412778;28;20517;-72
2022/08/26 17:17:20;;;;;;;11.65;1.70;;;;;;;19.56;100.00;101560.16;10415560;28;20057;-73
2022/08/26 17:22:21;;;;;;;9.98;1.60;;;;;;;19.55;100.00;101573.28;10446474;28;20722;-71
2022/08/26 17:27:21;;;;;;;8.10;1.30;;;;;;;19.34;100.00;101557.91;10456117;28;20041;-75
2022/08/26 17:32:21;;;;;;;5.85;0.90;;;;;;;19.38;100.00;101581.28;10428840;28;20037;-77
2022/08/26 17:37:22;;;;;;;4.55;1.08;;;;;;;19.27;100.00;101572.22;10456681;28;20033;-77
2022/08/26 17:42:23;;;;;;;3.85;1.88;;;;;;;19.34;100.00;101583.03;10422705;28;20118;-78
2022/08/26 17:47:23;;;;;;;9.23;1.50;;;;;;;19.32;100.00;101596.44;10419130;28;20125;-78
2022/08/26 17:52:24;;;;;;;6.85;0.90;;;;;;;19.29;100.00;101586.72;10433428;28;20030;-76
2022/08/26 17:57:24;;;;;;;6.45;1.42;;;;;;;19.23;100.00;101592.66;10452137;28;20060;-75
2022/08/26 18:02:25;;;;;;;7.55;1.30;;;;;;;19.27;100.00;101607.69;10457881;28;20384;-75
2022/08/26 18:07:25;;;;;;;3.65;0.60;;;;;;;19.14;100.00;101600.81;10466638;28;20126;-82
2022/08/26 18:12:26;;;;;;;5.60;1.20;;;;;;;19.24;100.00;101619.41;10458989;28;20447;-82
2022/08/26 18:17:26;;;;;;;4.75;0.85;;;;;;;19.12;100.00;101594.69;10406285;28;20129;-83
2022/08/26 18:22:27;;;;;;;1.77;0.70;;;;;;;19.02;100.00;101595.66;10419676;28;20037;-83
2022/08/26 18:27:27;;;;;;;8.05;0.85;;;;;;;19.06;100.00;101605.09;10406792;28;20057;-81
2022/08/26 18:32:28;;;;;;;6.85;0.85;;;;;;;19.00;100.00;101605.44;10417509;28;20037;-79
2022/08/26 18:37:28;;;;;;;4.68;1.30;;;;;;;19.03;100.00;101608.47;10404577;28;20033;-82
2022/08/26 18:42:29;;;;;;;6.63;1.15;;;;;;;18.96;100.00;101624.72;10376247;28;20042;-84
2022/08/26 18:47:30;;;;;;;4.53;0.90;;;;;;;18.80;100.00;101612.84;10390147;28;20087;-83
2022/08/26 18:52:31;;;;;;;5.22;0.90;;;;;;;18.81;100.00;101608.09;10387447;28;20501;-83
2022/08/26 18:57:31;;;;;;;5.53;1.00;;;;;;;18.85;100.00;101626.78;10355510;28;20124;-81
2022/08/26 19:02:32;;;;;;;3.83;0.90;;;;;;;18.83;100.00;101619.78;10381077;28;20993;-82
2022/08/26 19:07:33;;;;;;;2.55;1.00;;;;;;;18.86;100.00;101630.38;10439481;28;20046;-80
2022/08/26 19:12:34;;;;;;;7.45;1.50;;;;;;;18.79;100.00;101618.72;10418382;28;20033;-81
2022/08/26 19:17:34;;;;;;;5.75;1.00;;;;;;;18.75;100.00;101616.50;10431505;28;20045;-81
2022/08/26 19:22:35;;;;;;;8.93;1.77;;;;;;;18.82;100.00;101616.19;10392971;28;20472;-81
2022/08/26 19:27:35;;;;;;;9.65;1.25;;;;;;;18.85;100.00;101620.34;10429598;28;20033;-78
2022/08/26 19:32:36;;;;;;;6.85;1.10;;;;;;;18.72;100.00;101621.81;10416472;28;20554;-79
2022/08/26 19:37:37;;;;;;;5.95;1.40;;;;;;;18.71;100.00;101626.56;10414455;28;20044;-80
2022/08/26 19:42:37;;;;;;;3.85;1.13;;;;;;;18.64;100.00;101619.66;10412731;28;20038;-77
2022/08/26 19:47:38;;;;;;;5.32;1.33;;;;;;;18.52;100.00;101595.75;10360110;28;20053;-77
2022/08/26 19:52:39;;;;;;;5.55;1.10;;;;;;;18.57;100.00;101614.41;10372819;28;20038;-73
2022/08/26 19:57:39;;;;;;;6.93;1.33;;;;;;;18.58;100.00;101610.47;10396742;28;20056;-79
2022/08/26 20:02:40;;;;;;;6.03;0.88;;;;;;;18.55;100.00;101611.06;10400647;28;20064;-79
2022/08/26 20:07:41;;;;;;;4.13;1.20;;;;;;;18.52;100.00;101611.63;10381964;28;20034;-79
2022/08/26 20:12:41;;;;;;;6.88;0.90;;;;;;;18.65;100.00;101626.91;10386463;28;20081;-80
2022/08/26 20:17:42;;;;;;;3.97;0.65;;;;;;;18.43;100.00;101597.50;10386441;28;20034;-78
2022/08/26 20:22:42;;;;;;;3.15;0.80;;;;;;;18.48;100.00;101613.34;10383474;28;20064;-79
2022/08/26 20:27:43;;;;;;;6.03;0.88;;;;;;;18.50;100.00;101613.88;10386341;28;20041;-80
2022/08/26 20:32:43;;;;;;;2.35;0.73;;;;;;;18.43;100.00;101591.09;10370909;28;20034;-79
2022/08/26 20:37:44;;;;;;;5.45;0.68;;;;;;;18.55;100.00;101611.06;10381426;28;20034;-77
2022/08/26 20:42:44;;;;;;;3.40;0.98;;;;;;;18.47;100.00;101604.16;10372602;28;20065;-75
2022/08/26 20:47:45;;;;;;;5.53;1.27;;;;;;;18.36;100.00;101597.00;10372741;28;20046;-76
2022/08/26 20:52:45;;;;;;;7.15;1.42;;;;;;;18.43;100.00;101619.78;10371521;28;20401;-79
2022/08/26 20:57:47;;;;;;;5.18;1.05;;;;;;;18.33;100.00;101619.84;10371493;28;20030;-79
2022/08/26 21:02:51;;;;;;;8.30;1.67;;;;;;;18.34;100.00;101630.72;10408002;28;20535;-79
2022/08/26 21:07:52;;;;;;;2.65;1.00;;;;;;;18.32;100.00;101644.13;10431012;28;20040;-77
2022/08/26 21:12:52;;;;;;;2.17;0.70;;;;;;;18.25;100.00;101629.69;10447827;28;20052;-78
2022/08/26 21:17:53;;;;;;;3.72;0.60;;;;;;;17.91;100.00;101591.41;10440511;28;20037;-78
2022/08/26 21:22:53;;;;;;;4.10;1.05;;;;;;;18.20;100.00;101626.09;10471470;28;20037;-78
2022/08/26 21:27:55;;;;;;;5.10;1.02;;;;;;;18.15;100.00;101630.56;10426564;28;20037;-79
2022/08/26 21:32:55;;;;;;;5.25;1.35;;;;;;;18.06;100.00;101614.72;10459085;28;20047;-78
2022/08/26 21:37:56;;;;;;;3.78;0.90;;;;;;;18.07;100.00;101627.56;10476013;28;20040;-77
2022/08/26 21:42:56;;;;;;;6.63;1.08;;;;;;;18.02;100.00;101620.03;10426887;28;20045;-77
2022/08/26 21:47:56;;;;;;;5.97;1.20;;;;;;;18.02;100.00;101642.31;10475883;28;20036;-78
2022/08/26 21:52:57;;;;;;;4.18;0.90;;;;;;;17.85;100.00;101617.63;10458993;28;20041;-78
2022/08/26 21:57:57;;;;;;;8.13;0.93;;;;;;;17.91;100.00;101632.34;10459495;28;20029;-77
2022/08/26 22:02:59;;;;;;;6.60;1.15;;;;;;;17.86;100.00;101621.22;10457894;28;20033;-78
2022/08/26 22:07:59;;;;;;;6.45;1.15;;;;;;;17.80;100.00;101609.25;10444308;28;20088;-77
2022/08/26 22:13:00;;;;;;;5.13;0.98;;;;;;;17.81;100.00;101618.44;10386162;28;20045;-79
2022/08/26 22:18:04;;;;;;;4.90;1.33;;;;;;;17.83;100.00;101639.34;10403610;28;20029;-77
2022/08/26 22:23:05;;;;;;;10.23;1.25;;;;;;;17.75;100.00;101637.94;10415924;28;20037;-78
2022/08/26 22:28:06;;;;;;;5.63;0.77;;;;;;;17.79;100.00;101654.94;10384954;28;20722;-78
2022/08/26 22:33:06;;;;;;;5.78;1.63;;;;;;;17.68;100.00;101647.75;10361093;28;20065;-80
2022/08/26 22:38:07;;;;;;;5.43;1.42;;;;;;;17.62;100.00;101644.13;10376420;28;20030;-80
2022/08/26 22:43:07;;;;;;;4.13;0.77;;;;;;;17.43;100.00;101630.00;10376337;28;20045;-82
2022/08/26 22:48:08;;;;;;;2.90;1.17;;;;;;;17.48;100.00;101655.00;10390032;28;20168;-80
2022/08/26 22:53:09;;;;;;;6.80;1.35;;;;;;;17.35;100.00;101641.69;10414259;28;20670;-83
2022/08/26 22:58:10;;;;;;;6.07;1.40;;;;;;;17.35;100.00;101639.75;10430829;28;20057;-81
2022/08/26 23:03:10;;;;;;;4.65;0.80;;;;;;;17.29;100.00;101631.69;10379208;28;20048;-80